createdAt,value
2022-11-02T00:01:37.967Z,7.80
2022-11-02T00:04:25.867Z,7.70
2022-11-02T00:07:15.951Z,7.60
2022-11-02T00:10:03.935Z,7.60
2022-11-02T00:12:52.417Z,7.50
2022-11-02T00:15:40.468Z,7.40
2022-11-02T00:18:28.836Z,7.40
2022-11-02T00:21:19.052Z,7.40
2022-11-02T00:24:10.071Z,7.30
2022-11-02T00:26:58.715Z,7.20
2022-11-02T00:29:46.230Z,7.20
2022-11-02T00:32:33.903Z,7.10
2022-11-02T00:35:21.768Z,7.10
2022-11-02T00:38:09.548Z,7.10
2022-11-02T00:40:58.518Z,7.10
2022-11-02T00:43:46.120Z,7.10
2022-11-02T00:46:33.900Z,7.00
2022-11-02T00:49:21.518Z,6.90
2022-11-02T00:52:09.339Z,6.90
2022-11-02T00:54:57.251Z,6.80
2022-11-02T00:57:46.297Z,6.80
2022-11-02T01:00:33.629Z,6.80
2022-11-02T01:03:20.802Z,6.70
2022-11-02T01:06:10.019Z,6.70
2022-11-02T01:08:58.149Z,6.70
2022-11-02T01:11:45.533Z,6.60
2022-11-02T01:14:37.751Z,6.60
2022-11-02T01:17:24.831Z,6.60
2022-11-02T01:20:12.666Z,6.50
2022-11-02T01:23:00.199Z,6.40
2022-11-02T01:25:47.661Z,6.40
2022-11-02T01:28:35.742Z,6.30
2022-11-02T01:31:24.926Z,6.30
2022-11-02T01:34:12.645Z,6.30
2022-11-02T01:37:00.023Z,6.30
2022-11-02T01:39:47.596Z,6.30
2022-11-02T01:42:35.153Z,6.20
2022-11-02T01:45:22.465Z,6.20
2022-11-02T01:48:12.188Z,6.10
2022-11-02T01:51:01.638Z,6.10
2022-11-02T01:53:50.802Z,6.00
2022-11-02T01:56:39.575Z,6.00
2022-11-02T01:59:29.021Z,6.00
2022-11-02T02:02:18.624Z,5.90
2022-11-02T02:05:09.006Z,5.90
2022-11-02T02:07:56.719Z,5.90
2022-11-02T02:10:44.338Z,5.90
2022-11-02T02:13:32.040Z,5.80
2022-11-02T02:16:31.170Z,5.80
2022-11-02T02:19:37.334Z,5.80
2022-11-02T02:23:11.742Z,5.80
2022-11-02T02:26:22.686Z,5.70
2022-11-02T02:29:16.002Z,5.70
2022-11-02T02:32:05.717Z,5.60
2022-11-02T02:34:55.062Z,5.60
2022-11-02T02:37:51.171Z,5.50
2022-11-02T02:40:41.361Z,5.60
2022-11-02T02:43:33.539Z,5.60
2022-11-02T02:46:23.211Z,5.70
2022-11-02T02:49:13.741Z,5.70
2022-11-02T02:52:01.558Z,5.80
2022-11-02T02:54:50.183Z,5.80
2022-11-02T02:57:39.067Z,5.80
2022-11-02T03:00:26.891Z,5.70
2022-11-02T03:03:18.780Z,5.70
2022-11-02T03:06:11.064Z,5.60
2022-11-02T03:09:04.569Z,5.60
2022-11-02T03:11:56.008Z,5.60
2022-11-02T03:14:48.311Z,5.50
2022-11-02T03:17:46.499Z,5.50
2022-11-02T03:20:42.055Z,5.50
2022-11-02T03:23:32.232Z,5.50
2022-11-02T03:26:23.635Z,5.50
2022-11-02T03:29:13.861Z,5.40
2022-11-02T03:32:04.493Z,5.40
2022-11-02T03:34:55.788Z,5.30
2022-11-02T03:37:48.212Z,5.30
2022-11-02T03:40:39.293Z,5.20
2022-11-02T03:43:27.741Z,5.10
2022-11-02T03:46:16.811Z,5.10
2022-11-02T03:49:08.572Z,5.10
2022-11-02T03:52:00.577Z,5.10
2022-11-02T03:54:51.395Z,5.10
2022-11-02T03:57:42.181Z,5.00
2022-11-02T04:00:33.573Z,5.00
2022-11-02T04:03:25.545Z,4.90
2022-11-02T04:06:15.625Z,4.90
2022-11-02T04:09:03.207Z,4.90
2022-11-02T04:12:09.915Z,4.80
2022-11-02T04:14:58.548Z,4.80
2022-11-02T04:18:04.287Z,4.80
2022-11-02T04:20:52.258Z,4.70
2022-11-02T04:23:56.962Z,4.70
2022-11-02T04:26:44.241Z,4.70
2022-11-02T04:29:33.127Z,4.70
2022-11-02T04:32:40.908Z,4.70
2022-11-02T04:35:32.548Z,4.70
2022-11-02T04:38:37.116Z,4.70
2022-11-02T04:41:42.977Z,4.60
2022-11-02T04:44:46.307Z,4.60
2022-11-02T04:47:40.736Z,4.60
2022-11-02T04:50:28.923Z,4.60
2022-11-02T04:53:16.529Z,4.60
2022-11-02T04:56:04.319Z,4.50
2022-11-02T04:58:54.092Z,4.50
2022-11-02T05:01:43.607Z,4.50
2022-11-02T05:04:31.317Z,4.50
2022-11-02T05:07:18.866Z,4.40
2022-11-02T05:10:06.864Z,4.40
2022-11-02T05:12:57.663Z,4.30
2022-11-02T05:15:46.544Z,4.30
2022-11-02T05:18:35.236Z,4.20
2022-11-02T05:21:23.818Z,4.20
2022-11-02T05:24:13.922Z,4.20
2022-11-02T05:27:02.230Z,4.10
2022-11-02T05:29:53.006Z,4.10
2022-11-02T05:32:40.527Z,4.10
2022-11-02T05:35:29.493Z,4.10
2022-11-02T05:38:16.935Z,4.10
2022-11-02T05:41:05.583Z,4.10
2022-11-02T05:43:56.932Z,4.10
2022-11-02T05:46:46.065Z,4.10
2022-11-02T05:49:33.599Z,4.10
2022-11-02T05:52:22.983Z,4.10
2022-11-02T05:55:10.381Z,4.10
2022-11-02T05:57:57.835Z,4.10
2022-11-02T06:00:45.236Z,4.00
2022-11-02T06:03:33.216Z,4.00
2022-11-02T06:06:21.904Z,4.10
2022-11-02T06:09:10.815Z,4.10
2022-11-02T06:11:58.433Z,4.10
2022-11-02T06:14:45.882Z,4.10
2022-11-02T06:17:37.825Z,4.10
2022-11-02T06:20:25.273Z,4.10
2022-11-02T06:23:14.514Z,4.20
2022-11-02T06:26:04.002Z,4.20
2022-11-02T06:28:51.301Z,4.20
2022-11-02T06:31:38.909Z,4.30
2022-11-02T06:34:26.575Z,4.40
2022-11-02T06:37:13.971Z,4.40
2022-11-02T06:40:01.605Z,4.50
2022-11-02T06:43:10.844Z,4.50
2022-11-02T06:45:58.529Z,4.60
2022-11-02T06:48:48.730Z,4.80
2022-11-02T06:51:36.236Z,4.90
2022-11-02T06:54:23.769Z,5.00
2022-11-02T06:57:11.194Z,5.20
2022-11-02T07:00:04.820Z,5.40
2022-11-02T07:03:00.048Z,5.60
2022-11-02T07:05:51.052Z,5.80
2022-11-02T07:08:38.473Z,6.00
2022-11-02T07:11:26.048Z,6.20
2022-11-02T07:14:13.477Z,6.40
2022-11-02T07:17:02.185Z,6.60
2022-11-02T07:19:49.672Z,6.80
2022-11-02T07:22:37.442Z,6.90
2022-11-02T07:25:25.455Z,7.10
2022-11-02T07:28:12.837Z,7.30
2022-11-02T07:31:00.533Z,7.60
2022-11-02T07:33:49.632Z,7.80
2022-11-02T07:36:37.693Z,8.10
2022-11-02T07:39:26.304Z,8.30
2022-11-02T07:42:13.906Z,8.50
2022-11-02T07:45:04.292Z,8.60
2022-11-02T07:47:52.260Z,8.70
2022-11-02T07:50:41.220Z,8.90
2022-11-02T07:53:28.720Z,9.00
2022-11-02T07:56:16.478Z,9.20
2022-11-02T07:59:04.315Z,9.50
2022-11-02T08:01:51.922Z,9.70
2022-11-02T08:04:42.344Z,10.10
2022-11-02T08:07:34.109Z,10.40
2022-11-02T08:10:21.591Z,10.70
2022-11-02T08:13:15.195Z,10.90
2022-11-02T08:16:02.882Z,11.10
2022-11-02T08:18:50.218Z,11.30
2022-11-02T08:21:37.724Z,11.40
2022-11-02T08:24:29.092Z,11.60
2022-11-02T08:27:16.546Z,11.80
2022-11-02T08:30:04.048Z,12.00
2022-11-02T08:32:56.582Z,12.20
2022-11-02T08:35:45.334Z,12.40
2022-11-02T08:38:32.962Z,12.60
2022-11-02T08:41:22.077Z,12.80
2022-11-02T08:44:09.708Z,13.00
2022-11-02T08:46:57.219Z,13.20
2022-11-02T08:49:47.331Z,13.30
2022-11-02T08:52:40.376Z,13.50
2022-11-02T08:55:28.225Z,13.60
2022-11-02T08:58:18.653Z,13.80
2022-11-02T09:01:06.203Z,13.90
2022-11-02T09:03:53.909Z,14.00
2022-11-02T09:06:41.176Z,14.20
2022-11-02T09:09:28.384Z,14.30
2022-11-02T09:12:16.450Z,14.20
2022-11-02T09:15:06.240Z,14.30
2022-11-02T09:17:53.576Z,14.40
2022-11-02T09:20:40.868Z,14.60
2022-11-02T09:23:28.158Z,14.70
2022-11-02T09:26:15.457Z,14.70
2022-11-02T09:29:03.030Z,14.80
2022-11-02T09:31:51.980Z,14.90
2022-11-02T09:34:40.093Z,14.90
2022-11-02T09:37:27.725Z,15.10
2022-11-02T09:40:16.105Z,15.30
2022-11-02T09:43:07.668Z,15.30
2022-11-02T09:45:56.990Z,15.30
2022-11-02T09:48:47.498Z,15.30
2022-11-02T09:51:36.697Z,15.40
2022-11-02T09:54:26.976Z,15.60
2022-11-02T09:57:16.154Z,15.50
2022-11-02T10:00:03.840Z,15.60
2022-11-02T10:02:59.639Z,15.90
2022-11-02T10:05:52.821Z,16.10
2022-11-02T10:08:42.955Z,16.20
2022-11-02T10:11:38.787Z,16.30
2022-11-02T10:14:29.060Z,16.30
2022-11-02T10:17:18.577Z,16.40
2022-11-02T10:20:09.369Z,16.50
2022-11-02T10:23:00.836Z,16.60
2022-11-02T10:25:49.271Z,16.60
2022-11-02T10:28:39.557Z,16.60
2022-11-02T10:31:28.455Z,16.60
2022-11-02T10:34:21.924Z,16.50
2022-11-02T10:37:16.835Z,16.50
2022-11-02T10:40:13.298Z,16.40
2022-11-02T10:43:08.326Z,16.50
2022-11-02T10:46:06.975Z,16.50
2022-11-02T10:48:58.814Z,16.50
2022-11-02T10:51:46.270Z,16.60
2022-11-02T10:54:34.811Z,16.80
2022-11-02T10:57:25.418Z,16.90
2022-11-02T11:00:30.230Z,16.90
2022-11-02T11:03:18.466Z,17.00
2022-11-02T11:06:06.349Z,17.10
2022-11-02T11:08:59.749Z,17.10
2022-11-02T11:11:55.541Z,17.00
2022-11-02T11:21:04.623Z,17.20
2022-11-02T11:23:52.035Z,17.10
2022-11-02T11:26:39.404Z,17.40
2022-11-02T11:29:26.821Z,17.50
2022-11-02T11:32:18.111Z,17.40
2022-11-02T11:35:06.804Z,17.50
2022-11-02T11:37:55.653Z,17.50
2022-11-02T11:40:45.350Z,17.40
2022-11-02T11:43:37.371Z,17.30
2022-11-02T11:46:24.821Z,17.40
2022-11-02T11:49:20.923Z,17.60
2022-11-02T11:52:16.525Z,17.70
2022-11-02T11:55:20.039Z,17.70
2022-11-02T11:58:08.567Z,17.80
2022-11-02T12:01:17.278Z,17.80
2022-11-02T12:04:05.230Z,17.90
2022-11-02T12:07:00.111Z,17.90
2022-11-02T12:09:51.256Z,18.00
2022-11-02T12:12:53.028Z,18.10
2022-11-02T12:15:47.865Z,18.10
2022-11-02T12:18:46.775Z,18.10
2022-11-02T12:21:45.296Z,18.10
2022-11-02T12:24:50.433Z,18.10
2022-11-02T12:27:47.662Z,18.00
2022-11-02T12:30:40.778Z,18.10
2022-11-02T12:33:34.530Z,18.10
2022-11-02T12:36:30.346Z,18.10
2022-11-02T12:39:24.826Z,18.10
2022-11-02T12:42:17.660Z,18.20
2022-11-02T12:45:17.442Z,18.40
2022-11-02T12:48:06.025Z,18.30
2022-11-02T12:50:57.055Z,18.40
2022-11-02T12:53:47.534Z,18.30
2022-11-02T12:56:40.875Z,18.20
2022-11-02T12:59:29.639Z,18.30
2022-11-02T13:02:20.924Z,18.20
2022-11-02T13:05:10.474Z,18.20
2022-11-02T13:08:03.941Z,18.10
2022-11-02T13:10:54.121Z,18.20
2022-11-02T13:13:45.580Z,18.40
2022-11-02T13:16:36.408Z,18.30
2022-11-02T13:19:30.193Z,18.10
2022-11-02T13:22:19.825Z,18.00
2022-11-02T13:25:15.403Z,17.80
2022-11-02T13:28:07.422Z,17.40
2022-11-02T13:30:56.617Z,17.10
2022-11-02T13:33:48.896Z,16.90
2022-11-02T13:36:40.664Z,16.60
2022-11-02T13:39:35.363Z,16.40
2022-11-02T13:42:48.503Z,16.30
2022-11-02T13:45:53.457Z,16.20
2022-11-02T13:48:54.317Z,16.00
2022-11-02T13:51:46.806Z,15.90
2022-11-02T13:54:37.763Z,15.80
2022-11-02T13:57:36.000Z,15.80
2022-11-02T14:00:35.538Z,15.80
2022-11-02T14:03:26.345Z,15.80
2022-11-02T14:06:17.043Z,15.80
2022-11-02T14:09:08.856Z,15.80
2022-11-02T14:12:29.279Z,15.70
2022-11-02T14:15:56.216Z,15.70
2022-11-02T14:18:44.027Z,15.60
2022-11-02T14:21:43.368Z,15.50
2022-11-02T14:25:06.561Z,15.50
2022-11-02T14:27:55.397Z,15.50
2022-11-02T14:30:45.599Z,15.40
2022-11-02T14:34:02.167Z,15.50
2022-11-02T14:37:06.040Z,15.40
2022-11-02T14:40:02.181Z,15.30
2022-11-02T14:43:25.236Z,15.30
2022-11-02T14:46:23.353Z,15.30
2022-11-02T14:49:20.878Z,15.30
2022-11-02T14:52:09.964Z,15.20
2022-11-02T14:55:03.071Z,15.20
2022-11-02T14:57:52.493Z,15.10
2022-11-02T15:00:55.542Z,15.10
2022-11-02T15:03:44.891Z,15.00
2022-11-02T15:06:32.785Z,14.90
2022-11-02T15:09:56.089Z,14.70
2022-11-02T15:12:46.636Z,14.50
2022-11-02T15:15:35.847Z,14.30
2022-11-02T15:18:32.785Z,14.20
2022-11-02T15:21:27.824Z,14.10
2022-11-02T15:24:20.009Z,14.00
2022-11-02T15:27:08.556Z,13.90
2022-11-02T15:30:02.517Z,13.80
2022-11-02T15:32:57.612Z,13.80
2022-11-02T15:35:51.712Z,13.60
2022-11-02T15:38:40.504Z,13.50
2022-11-02T15:41:39.846Z,13.40
2022-11-02T15:45:20.352Z,13.20
2022-11-02T15:48:34.559Z,13.00
2022-11-02T15:51:28.170Z,12.80
2022-11-02T15:54:27.858Z,12.60
2022-11-02T15:57:27.117Z,12.50
2022-11-02T16:00:19.362Z,12.30
2022-11-02T16:03:09.680Z,12.20
2022-11-02T16:06:03.341Z,12.10
2022-11-02T16:08:53.506Z,12.00
2022-11-02T16:11:41.252Z,11.90
2022-11-02T16:14:32.311Z,11.80
2022-11-02T16:17:21.452Z,11.80
2022-11-02T16:20:10.841Z,11.70
2022-11-02T16:23:01.048Z,11.60
2022-11-02T16:25:48.449Z,11.50
2022-11-02T16:28:37.265Z,11.30
2022-11-02T16:31:31.254Z,11.20
2022-11-02T16:34:22.303Z,11.00
2022-11-02T16:37:14.425Z,10.80
2022-11-02T16:40:03.810Z,10.60
2022-11-02T16:42:54.408Z,10.50
2022-11-02T16:45:44.008Z,10.30
2022-11-02T16:48:33.989Z,10.20
2022-11-02T16:51:21.913Z,10.10
2022-11-02T16:54:27.563Z,10.00
2022-11-02T16:57:20.292Z,9.90
2022-11-02T17:00:09.688Z,9.90
2022-11-02T17:02:57.135Z,9.80
2022-11-02T17:05:49.167Z,9.90
2022-11-02T17:08:37.421Z,10.00
2022-11-02T17:11:25.132Z,10.10
2022-11-02T17:14:13.896Z,10.10
2022-11-02T17:17:03.184Z,10.00
2022-11-02T17:19:55.172Z,10.00
2022-11-02T17:22:49.816Z,9.90
2022-11-02T17:25:37.636Z,9.60
2022-11-02T17:28:44.495Z,9.40
2022-11-02T17:31:36.429Z,9.20
2022-11-02T17:34:24.241Z,9.00
2022-11-02T17:37:21.859Z,8.80
2022-11-02T17:40:12.900Z,8.70
2022-11-02T17:42:59.563Z,8.50
2022-11-02T17:45:47.570Z,8.40
2022-11-02T17:48:37.053Z,8.20
2022-11-02T17:51:25.663Z,8.10
2022-11-02T17:54:14.195Z,8.00
2022-11-02T17:57:02.410Z,7.90
2022-11-02T17:59:51.565Z,7.80
2022-11-02T18:02:39.580Z,7.70
2022-11-02T18:05:29.145Z,7.80
2022-11-02T18:08:16.611Z,7.80
2022-11-02T18:11:04.471Z,7.80
2022-11-02T18:13:51.853Z,7.80
2022-11-02T18:16:39.133Z,7.90
2022-11-02T18:19:26.471Z,8.10
2022-11-02T18:22:16.041Z,8.20
2022-11-02T18:25:03.435Z,8.40
2022-11-02T18:27:51.155Z,8.50
2022-11-02T18:30:38.595Z,8.60
2022-11-02T18:33:25.995Z,8.60
2022-11-02T18:36:13.590Z,8.60
2022-11-02T18:39:02.104Z,8.50
2022-11-02T18:41:49.513Z,8.40
2022-11-02T18:44:36.904Z,8.30
2022-11-02T18:47:24.459Z,8.30
2022-11-02T18:50:12.389Z,8.20
2022-11-02T18:52:59.804Z,8.10
2022-11-02T18:55:48.649Z,8.10
2022-11-02T18:58:36.185Z,8.20
2022-11-02T19:01:24.473Z,8.20
2022-11-02T19:04:17.138Z,8.20
2022-11-02T19:07:23.262Z,8.00
2022-11-02T19:10:10.929Z,7.90
2022-11-02T19:12:59.902Z,7.70
2022-11-02T19:15:47.520Z,7.50
2022-11-02T19:18:35.016Z,7.30
2022-11-02T19:21:22.603Z,7.20
2022-11-02T19:24:10.177Z,7.10
2022-11-02T19:26:57.654Z,7.00
2022-11-02T19:29:46.758Z,6.90
2022-11-02T19:32:33.971Z,6.90
2022-11-02T19:35:21.350Z,6.80
2022-11-02T19:38:09.182Z,6.70
2022-11-02T19:41:03.032Z,6.80
2022-11-02T19:43:50.868Z,7.10
2022-11-02T19:46:39.801Z,7.30
2022-11-02T19:49:27.359Z,7.30
2022-11-02T19:52:15.000Z,7.20
2022-11-02T19:55:02.455Z,7.10
2022-11-02T19:57:49.795Z,6.90
2022-11-02T20:00:37.289Z,6.80
2022-11-02T20:03:26.351Z,6.60
2022-11-02T20:06:15.309Z,6.50
2022-11-02T20:09:04.334Z,6.40
2022-11-02T20:11:51.853Z,6.20
2022-11-02T20:14:39.165Z,6.10
2022-11-02T20:17:32.046Z,6.10
2022-11-02T20:20:28.826Z,6.00
2022-11-02T20:23:16.320Z,5.90
2022-11-02T20:26:05.195Z,5.80
2022-11-02T20:28:52.793Z,5.70
2022-11-02T20:31:40.559Z,5.60
2022-11-02T20:34:28.027Z,5.50
2022-11-02T20:37:16.525Z,5.50
2022-11-02T20:40:04.107Z,5.40
2022-11-02T20:42:51.585Z,5.30
2022-11-02T20:45:39.167Z,5.30
2022-11-02T20:48:26.471Z,5.20
2022-11-02T20:51:14.189Z,5.20
2022-11-02T20:54:03.442Z,5.10
2022-11-02T20:56:51.518Z,5.00
2022-11-02T20:59:38.826Z,5.00
2022-11-02T21:02:26.469Z,4.90
2022-11-02T21:05:14.664Z,4.80
2022-11-02T21:08:01.940Z,4.80
2022-11-02T21:10:58.035Z,4.70
2022-11-02T21:13:53.816Z,4.70
2022-11-02T21:16:41.586Z,4.60
2022-11-02T21:19:29.186Z,4.50
2022-11-02T21:22:16.929Z,4.50
2022-11-02T21:25:04.088Z,4.40
2022-11-02T21:27:52.845Z,4.40
2022-11-02T21:30:40.516Z,4.40
2022-11-02T21:33:28.161Z,4.30
2022-11-02T21:36:15.888Z,4.30
2022-11-02T21:39:03.015Z,4.20
2022-11-02T21:41:50.552Z,4.20
2022-11-02T21:44:39.214Z,4.10
2022-11-02T21:47:34.112Z,4.10
2022-11-02T21:50:21.684Z,4.10
2022-11-02T21:53:09.188Z,4.00
2022-11-02T21:55:57.682Z,4.00
2022-11-02T21:58:46.477Z,3.90
2022-11-02T22:01:49.337Z,4.00
2022-11-02T22:04:36.856Z,4.20
2022-11-02T22:07:24.536Z,4.40
2022-11-02T22:10:11.952Z,4.50
2022-11-02T22:13:22.184Z,4.40
2022-11-02T22:16:10.794Z,4.30
2022-11-02T22:19:01.062Z,4.20
2022-11-02T22:21:49.534Z,4.10
2022-11-02T22:24:40.765Z,3.90
2022-11-02T22:27:31.877Z,3.80
2022-11-02T22:30:19.479Z,3.70
2022-11-02T22:33:09.181Z,3.60
2022-11-02T22:35:58.065Z,3.60
2022-11-02T22:38:57.337Z,3.50
2022-11-02T22:41:46.089Z,3.50
2022-11-02T22:44:33.588Z,3.40
2022-11-02T22:47:20.976Z,3.40
2022-11-02T22:50:09.072Z,3.30
2022-11-02T22:52:57.993Z,3.30
2022-11-02T22:55:45.361Z,3.20
2022-11-02T22:58:34.066Z,3.20
2022-11-02T23:01:22.871Z,3.20
2022-11-02T23:04:11.413Z,3.20
2022-11-02T23:06:58.997Z,3.20
2022-11-02T23:09:48.059Z,3.10
2022-11-02T23:12:34.670Z,3.10
2022-11-02T23:15:22.098Z,3.00
2022-11-02T23:18:09.210Z,3.00
2022-11-02T23:20:55.424Z,3.00
2022-11-02T23:23:59.958Z,3.00
2022-11-02T23:26:49.682Z,3.00
2022-11-02T23:29:54.110Z,2.90
2022-11-02T23:32:41.623Z,2.90
2022-11-02T23:36:01.093Z,2.80
2022-11-02T23:39:06.887Z,2.80
2022-11-02T23:41:55.684Z,2.80
2022-11-02T23:44:43.116Z,2.70
2022-11-02T23:47:47.929Z,2.70
2022-11-02T23:50:53.184Z,2.70
2022-11-02T23:54:03.360Z,2.60
2022-11-02T23:56:50.856Z,2.60
2022-11-02T23:59:39.530Z,2.50
